Time;durP1;ratioP1;P1;durP2;ratioP2;P2;SDS_P1;SDS_P2;PMS_P1;PMS_P2;Temp;Humidity;BMP_temperature;BMP_pressure;BME280_temperature;BME280_humidity;BME280_pressure;Samples;Min_cycle;Max_cycle;Signal;HPM_P1;HPM_P2
2023/10/28 00:00:45;;;;;;;4.97;0.10;;;;;;;14.42;100.00;99288.66;5050469;28;21981;-72
2023/10/28 00:03:10;;;;;;;2.83;0.20;;;;;;;14.38;100.00;99295.25;5051108;28;20036;-70
2023/10/28 00:05:36;;;;;;;3.90;0.20;;;;;;;14.37;100.00;99299.69;5050070;28;20396;-72
2023/10/28 00:08:03;;;;;;;0.95;0.10;;;;;;;14.34;100.00;99297.47;5050903;28;20031;-70
2023/10/28 00:10:33;;;;;;;5.90;0.30;;;;;;;14.39;100.00;99308.16;5050151;28;20025;-72
2023/10/28 00:12:59;;;;;;;2.22;0.10;;;;;;;14.41;100.00;99305.34;5050355;28;20033;-72
2023/10/28 00:15:25;;;;;;;5.38;0.20;;;;;;;14.43;100.00;99319.91;5050575;28;20032;-72
2023/10/28 00:17:51;;;;;;;0.85;0.05;;;;;;;14.42;100.00;99315.66;5050164;28;20024;-70
2023/10/28 00:20:17;;;;;;;6.88;0.20;;;;;;;14.42;100.00;99320.91;5050613;28;20037;-71
2023/10/28 00:22:47;;;;;;;2.10;0.10;;;;;;;14.41;100.00;99321.91;5046781;28;20029;-72
2023/10/28 00:25:15;;;;;;;2.45;0.52;;;;;;;14.46;100.00;99318.69;5045077;28;20227;-71
2023/10/28 00:27:44;;;;;;;3.08;0.60;;;;;;;14.51;100.00;99322.34;5046725;28;20465;-71
2023/10/28 00:30:12;;;;;;;1.02;0.10;;;;;;;14.53;100.00;99315.09;5048962;28;20481;-70
2023/10/28 00:32:38;;;;;;;1.30;0.08;;;;;;;14.48;100.00;99327.19;5046042;28;20029;-72
2023/10/28 00:35:05;;;;;;;2.30;0.52;;;;;;;14.50;100.00;99317.31;5050552;28;20564;-70
2023/10/28 00:37:31;;;;;;;6.90;0.73;;;;;;;14.47;100.00;99317.69;5049551;28;20036;-70
2023/10/28 00:39:57;;;;;;;0.80;0.20;;;;;;;14.48;100.00;99319.31;5049972;28;20032;-72
2023/10/28 00:42:23;;;;;;;2.47;0.20;;;;;;;14.51;100.00;99326.78;5049935;28;20039;-70
2023/10/28 00:44:50;;;;;;;4.32;0.20;;;;;;;14.48;100.00;99327.19;5049390;28;20031;-71
2023/10/28 00:47:15;;;;;;;1.67;0.20;;;;;;;14.49;100.00;99326.16;5048516;28;20093;-71
2023/10/28 00:49:42;;;;;;;3.55;0.20;;;;;;;14.51;100.00;99327.59;5048423;28;20504;-69
2023/10/28 00:52:08;;;;;;;1.75;0.10;;;;;;;14.49;100.00;99326.16;5048264;28;20025;-69
2023/10/28 00:54:35;;;;;;;3.33;0.10;;;;;;;14.47;100.00;99322.94;5047351;28;20025;-70
2023/10/28 00:57:01;;;;;;;2.55;0.17;;;;;;;14.25;100.00;99322.22;5047912;28;20033;-71
2023/10/28 00:59:28;;;;;;;2.95;0.20;;;;;;;14.32;100.00;99317.81;5049378;28;20139;-70
2023/10/28 01:01:54;;;;;;;3.85;0.10;;;;;;;14.31;100.00;99323.25;5046772;28;20057;-71
2023/10/28 01:04:20;;;;;;;1.35;0.10;;;;;;;14.26;100.00;99321.22;5047396;28;20117;-70
2023/10/28 01:06:46;;;;;;;2.50;0.20;;;;;;;14.28;100.00;99327.88;5047210;28;20035;-71
2023/10/28 01:09:11;;;;;;;3.40;0.10;;;;;;;14.26;100.00;99329.88;5049524;28;20029;-71
2023/10/28 01:11:40;;;;;;;1.10;0.17;;;;;;;14.24;100.00;99336.31;5047637;28;20033;-71
2023/10/28 01:14:08;;;;;;;2.42;0.20;;;;;;;14.16;100.00;99331.28;5044924;28;20428;-72
2023/10/28 01:16:34;;;;;;;1.98;0.20;;;;;;;14.07;100.00;99333.25;5048085;28;20851;-71
2023/10/28 01:19:00;;;;;;;0.70;0.10;;;;;;;14.11;100.00;99334.47;5044644;28;20111;-72
2023/10/28 01:21:26;;;;;;;3.55;0.20;;;;;;;14.11;100.00;99334.47;5049445;28;20025;-71
2023/10/28 01:23:52;;;;;;;4.25;0.10;;;;;;;14.08;100.00;99344.53;5052550;28;20507;-72
2023/10/28 01:26:18;;;;;;;4.28;0.20;;;;;;;14.11;100.00;99344.94;5049317;28;20039;-71
2023/10/28 01:28:44;;;;;;;1.08;0.00;;;;;;;14.00;100.00;99348.09;5048294;28;20040;-71
2023/10/28 01:31:09;;;;;;;1.30;0.10;;;;;;;13.90;100.00;99342.41;5049871;28;20041;-71
2023/10/28 01:33:35;;;;;;;2.45;0.10;;;;;;;13.76;100.00;99345.94;5046739;28;20037;-71
2023/10/28 01:36:00;;;;;;;3.38;0.10;;;;;;;13.69;100.00;99351.16;5049900;28;20108;-71
2023/10/28 01:38:26;;;;;;;0.82;0.10;;;;;;;13.63;100.00;99356.34;5042995;28;20516;-71
2023/10/28 01:40:51;;;;;;;2.25;0.00;;;;;;;13.70;100.00;99359.81;5049264;28;20040;-71
2023/10/28 01:43:18;;;;;;;2.03;0.10;;;;;;;13.70;100.00;99357.19;5045710;28;20048;-71
2023/10/28 01:45:44;;;;;;;2.28;0.10;;;;;;;13.64;100.00;99357.97;5048792;28;20033;-71
2023/10/28 01:48:11;;;;;;;2.30;0.20;;;;;;;13.66;100.00;99359.38;5046236;28;20031;-71
2023/10/28 01:50:37;;;;;;;1.02;0.10;;;;;;;13.64;100.00;99363.19;5048050;28;20045;-72
2023/10/28 01:53:03;;;;;;;0.73;0.10;;;;;;;13.52;100.00;99350.63;5048211;28;20047;-71
2023/10/28 01:55:29;;;;;;;3.15;0.10;;;;;;;13.51;100.00;99343.78;5048055;28;20051;-72
2023/10/28 01:57:55;;;;;;;3.65;0.10;;;;;;;13.54;100.00;99353.06;5048400;28;20086;-72
2023/10/28 02:00:22;;;;;;;1.13;0.10;;;;;;;13.60;100.00;99363.56;5048327;28;20116;-71
2023/10/28 02:02:48;;;;;;;0.22;0.00;;;;;;;13.61;100.00;99364.38;5045624;28;20033;-72
2023/10/28 02:05:15;;;;;;;1.90;0.10;;;;;;;13.61;100.00;99357.34;5046458;28;20029;-72
2023/10/28 02:07:41;;;;;;;1.40;0.00;;;;;;;13.64;100.00;99358.78;5048187;28;20135;-71
2023/10/28 02:10:06;;;;;;;1.27;0.10;;;;;;;13.61;100.00;99362.56;5048640;28;20478;-72
2023/10/28 02:12:34;;;;;;;2.05;0.10;;;;;;;13.58;100.00;99362.97;5048407;28;20120;-71
2023/10/28 02:15:05;;;;;;;3.30;0.03;;;;;;;13.51;100.00;99354.25;5048733;28;20029;-72
2023/10/28 02:17:31;;;;;;;2.08;0.10;;;;;;;13.55;100.00;99360.72;5047340;28;20098;-71
2023/10/28 02:19:56;;;;;;;1.27;0.10;;;;;;;13.61;100.00;99364.38;5044722;28;20482;-71
2023/10/28 02:22:22;;;;;;;0.88;0.20;;;;;;;13.59;100.00;99367.19;5048830;28;20517;-72
2023/10/28 02:24:48;;;;;;;2.90;0.10;;;;;;;13.61;100.00;99367.00;5045040;28;20029;-72
2023/10/28 02:27:13;;;;;;;3.25;0.08;;;;;;;13.56;100.00;99362.34;5047016;28;20043;-71
2023/10/28 02:29:39;;;;;;;1.65;0.10;;;;;;;13.51;100.00;99366.53;5048988;28;20068;-71
2023/10/28 02:32:05;;;;;;;1.98;0.00;;;;;;;13.57;100.00;99363.97;5047567;28;20394;-72
2023/10/28 02:34:31;;;;;;;0.77;0.10;;;;;;;13.57;100.00;99363.16;5044669;28;20044;-71
2023/10/28 02:36:56;;;;;;;3.38;0.08;;;;;;;13.55;100.00;99362.53;5048679;28;20032;-71
2023/10/28 02:39:22;;;;;;;1.92;0.10;;;;;;;13.53;100.00;99365.34;5046176;28;20037;-71
2023/10/28 02:41:47;;;;;;;0.50;0.00;;;;;;;13.53;100.00;99357.47;5047495;28;20029;-72
2023/10/28 02:44:13;;;;;;;8.07;0.17;;;;;;;13.49;100.00;99364.09;5046609;28;20041;-71
2023/10/28 02:46:38;;;;;;;1.90;0.03;;;;;;;13.58;100.00;99367.38;5048041;28;20071;-71
2023/10/28 02:49:04;;;;;;;0.60;0.00;;;;;;;13.63;100.00;99361.59;5047458;28;20041;-72
2023/10/28 02:51:29;;;;;;;1.23;0.10;;;;;;;13.63;100.00;99366.81;5050966;28;20136;-72
2023/10/28 02:53:55;;;;;;;0.75;0.00;;;;;;;13.70;100.00;99372.91;5050898;28;20041;-71
2023/10/28 02:56:21;;;;;;;1.48;0.10;;;;;;;13.74;100.00;99369.69;5051872;28;20478;-71
2023/10/28 02:58:46;;;;;;;0.55;0.00;;;;;;;13.82;100.00;99366.13;5049410;28;20047;-71
2023/10/28 03:01:13;;;;;;;3.25;0.10;;;;;;;13.87;100.00;99364.53;5051983;28;20024;-72
2023/10/28 03:03:41;;;;;;;0.98;0.10;;;;;;;13.92;100.00;99366.59;5045555;28;20048;-71
2023/10/28 03:06:06;;;;;;;1.40;0.10;;;;;;;13.95;100.00;99366.22;5052093;28;20051;-71
2023/10/28 03:08:32;;;;;;;2.08;0.10;;;;;;;14.03;100.00;99362.63;5050562;28;20485;-72
2023/10/28 03:10:57;;;;;;;2.65;0.20;;;;;;;14.06;100.00;99368.28;5051953;28;20029;-72
2023/10/28 03:13:23;;;;;;;1.80;0.03;;;;;;;14.12;100.00;99364.91;5052078;28;20072;-71
2023/10/28 03:15:49;;;;;;;2.33;0.10;;;;;;;14.16;100.00;99362.69;5049164;28;20158;-71
2023/10/28 03:18:14;;;;;;;2.90;0.10;;;;;;;14.18;100.00;99361.47;5047781;28;20033;-71
2023/10/28 03:20:40;;;;;;;1.48;0.00;;;;;;;14.16;100.00;99363.50;5050315;28;20045;-71
2023/10/28 03:23:05;;;;;;;4.90;0.03;;;;;;;14.17;100.00;99367.75;5050319;28;20052;-71
2023/10/28 03:25:32;;;;;;;2.13;0.10;;;;;;;14.19;100.00;99360.47;5048904;28;20039;-71
2023/10/28 03:28:00;;;;;;;0.70;0.05;;;;;;;14.21;100.00;99370.75;5049631;28;20029;-71
2023/10/28 03:30:26;;;;;;;2.25;0.10;;;;;;;14.19;100.00;99367.53;5050112;28;20033;-71
2023/10/28 03:32:51;;;;;;;3.35;0.00;;;;;;;14.25;100.00;99374.59;5051551;28;20033;-71
2023/10/28 03:35:17;;;;;;;0.90;0.10;;;;;;;14.22;100.00;99375.00;5049189;28;20033;-72
2023/10/28 03:37:44;;;;;;;0.95;0.10;;;;;;;14.24;100.00;99365.13;5050357;28;20693;-71
2023/10/28 03:40:10;;;;;;;2.85;0.10;;;;;;;14.24;100.00;99375.59;5050383;28;20037;-71
2023/10/28 03:42:36;;;;;;;1.23;0.10;;;;;;;14.24;100.00;99379.03;5050379;28;20041;-70
2023/10/28 03:45:07;;;;;;;1.20;0.10;;;;;;;14.22;100.00;99388.91;5050777;28;20553;-71
2023/10/28 03:47:33;;;;;;;0.73;0.03;;;;;;;14.22;100.00;99388.09;5050979;28;20037;-71
2023/10/28 03:49:59;;;;;;;2.88;0.20;;;;;;;14.25;100.00;99385.09;5048694;28;20136;-71
2023/10/28 03:52:25;;;;;;;3.78;0.10;;;;;;;14.27;100.00;99390.94;5049992;28;20494;-71
2023/10/28 03:54:51;;;;;;;4.88;0.20;;;;;;;14.24;100.00;99396.56;5050849;28;20115;-72
2023/10/28 03:57:16;;;;;;;1.90;0.08;;;;;;;14.21;100.00;99389.91;5051791;28;20032;-71
2023/10/28 03:59:42;;;;;;;3.35;0.05;;;;;;;14.22;100.00;99388.09;5049811;28;20035;-71
2023/10/28 04:02:08;;;;;;;0.75;0.13;;;;;;;14.21;100.00;99382.03;5051305;28;20063;-71
2023/10/28 04:04:33;;;;;;;0.80;0.10;;;;;;;14.17;100.00;99388.72;5046881;28;20090;-71
2023/10/28 04:06:59;;;;;;;3.42;0.45;;;;;;;14.18;100.00;99392.91;5049793;28;20033;-71
2023/10/28 04:09:24;;;;;;;3.95;0.10;;;;;;;14.16;100.00;99384.47;5048943;28;20468;-71
2023/10/28 04:11:50;;;;;;;2.30;0.03;;;;;;;14.11;100.00;99386.84;5051679;28;20029;-71
2023/10/28 04:14:16;;;;;;;2.17;0.10;;;;;;;14.15;100.00;99384.66;5046619;28;20029;-71
2023/10/28 04:16:41;;;;;;;0.68;0.10;;;;;;;14.18;100.00;99395.53;5049062;28;20039;-71
2023/10/28 04:19:07;;;;;;;0.25;0.05;;;;;;;14.19;100.00;99394.53;5049233;28;20041;-71
2023/10/28 04:21:33;;;;;;;2.83;0.05;;;;;;;14.20;100.00;99390.91;5049900;28;20115;-71
2023/10/28 04:23:59;;;;;;;3.10;0.10;;;;;;;14.21;100.00;99392.53;5048907;28;20033;-71
2023/10/28 04:26:24;;;;;;;1.95;0.15;;;;;;;14.20;100.00;99392.72;5050056;28;20021;-71
2023/10/28 04:28:50;;;;;;;3.17;0.10;;;;;;;14.19;100.00;99393.72;5045949;28;20032;-71
2023/10/28 04:31:15;;;;;;;1.27;0.20;;;;;;;14.19;100.00;99397.16;5050497;28;20402;-71
2023/10/28 04:33:41;;;;;;;2.40;0.20;;;;;;;14.18;100.00;99394.72;5049768;28;20033;-71
2023/10/28 04:36:10;;;;;;;1.88;0.00;;;;;;;14.17;100.00;99399.19;5048544;28;20087;-71
2023/10/28 04:38:37;;;;;;;2.05;0.10;;;;;;;14.19;100.00;99399.78;5049757;28;20047;-71
2023/10/28 04:41:02;;;;;;;4.90;0.10;;;;;;;14.21;100.00;99392.53;5048005;28;20017;-71
2023/10/28 04:43:29;;;;;;;0.38;0.10;;;;;;;14.23;100.00;99393.13;5048115;28;20033;-71
2023/10/28 04:45:54;;;;;;;0.20;0.00;;;;;;;14.24;100.00;99397.38;5048761;28;20500;-72
2023/10/28 04:48:21;;;;;;;0.80;0.03;;;;;;;14.24;100.00;99392.13;5049764;28;20033;-72
2023/10/28 04:50:47;;;;;;;0.20;0.00;;;;;;;14.26;100.00;99398.00;5049074;28;20037;-72
2023/10/28 04:53:13;;;;;;;2.25;0.10;;;;;;;14.25;100.00;99399.00;5050196;28;20119;-72
2023/10/28 04:55:38;;;;;;;1.65;0.10;;;;;;;14.20;100.00;99404.00;5045639;28;20115;-72
2023/10/28 04:58:05;;;;;;;2.15;0.10;;;;;;;14.18;100.00;99403.38;5048391;28;20025;-71
2023/10/28 05:00:30;;;;;;;0.85;0.10;;;;;;;14.20;100.00;99406.63;5048094;28;20059;-72
2023/10/28 05:02:56;;;;;;;0.75;0.20;;;;;;;14.20;100.00;99405.81;5048450;28;20545;-71
2023/10/28 05:05:21;;;;;;;0.35;0.08;;;;;;;14.24;100.00;99413.09;5047607;28;20037;-71
2023/10/28 05:07:47;;;;;;;1.05;0.10;;;;;;;14.25;100.00;99413.91;5049371;28;20120;-71
2023/10/28 05:10:13;;;;;;;1.83;0.10;;;;;;;14.20;100.00;99414.47;5049654;28;20393;-71
2023/10/28 05:12:40;;;;;;;4.20;0.10;;;;;;;14.06;100.00;99407.56;5048629;28;20041;-72
2023/10/28 05:15:10;;;;;;;1.88;0.10;;;;;;;14.08;100.00;99410.81;5045464;28;20053;-71
2023/10/28 05:17:36;;;;;;;0.47;0.00;;;;;;;14.08;100.00;99418.66;5048217;28;20776;-72
2023/10/28 05:20:06;;;;;;;0.47;0.10;;;;;;;14.10;100.00;99416.66;5045455;28;20504;-72
2023/10/28 05:22:41;;;;;;;0.20;0.00;;;;;;;14.09;100.00;99424.72;5049303;28;20075;-71
2023/10/28 05:25:09;;;;;;;2.65;0.10;;;;;;;14.11;100.00;99427.94;5049054;28;20390;-71
2023/10/28 05:27:35;;;;;;;2.35;0.70;;;;;;;14.11;100.00;99426.16;5048382;28;20036;-71
2023/10/28 05:30:02;;;;;;;1.05;0.10;;;;;;;14.09;100.00;99430.75;5045163;28;20032;-71
2023/10/28 05:32:29;;;;;;;1.55;0.10;;;;;;;14.07;100.00;99443.25;5048719;28;20036;-71
2023/10/28 05:34:56;;;;;;;3.30;0.10;;;;;;;14.07;100.00;99442.44;5043068;28;20029;-71
2023/10/28 05:37:21;;;;;;;1.90;0.10;;;;;;;14.08;100.00;99439.63;5048433;28;20025;-71
2023/10/28 05:39:47;;;;;;;0.90;0.10;;;;;;;14.08;100.00;99441.44;5044408;28;20109;-71
2023/10/28 05:42:14;;;;;;;0.85;0.05;;;;;;;14.09;100.00;99441.25;5049322;28;20032;-72
2023/10/28 05:44:40;;;;;;;1.95;0.10;;;;;;;14.10;100.00;99442.06;5047624;28;20052;-71
2023/10/28 05:47:07;;;;;;;0.77;0.10;;;;;;;14.11;100.00;99449.72;5049308;28;20033;-71
2023/10/28 05:49:33;;;;;;;0.40;0.10;;;;;;;14.12;100.00;99451.34;5044198;28;20068;-71
2023/10/28 05:51:59;;;;;;;1.63;0.20;;;;;;;14.13;100.00;99458.19;5049474;28;20072;-71
2023/10/28 05:54:24;;;;;;;0.85;0.30;;;;;;;14.13;100.00;99460.81;5048038;28;20494;-71
2023/10/28 05:56:49;;;;;;;5.20;0.45;;;;;;;14.12;100.00;99464.44;5048904;28;20045;-71
2023/10/28 05:59:15;;;;;;;0.50;0.10;;;;;;;14.11;100.00;99457.56;5049366;28;20063;-71
2023/10/28 06:01:41;;;;;;;0.00;0.00;;;;;;;14.12;100.00;99466.25;5048274;28;20390;-71
2023/10/28 06:04:06;;;;;;;1.80;0.10;;;;;;;14.09;100.00;99477.91;5047141;28;20040;-71
2023/10/28 06:06:32;;;;;;;1.63;0.10;;;;;;;14.10;100.00;99476.09;5045489;28;20029;-72
2023/10/28 06:08:57;;;;;;;0.63;0.10;;;;;;;14.10;100.00;99484.75;5047833;28;20359;-71
2023/10/28 06:11:23;;;;;;;1.10;0.10;;;;;;;14.05;100.00;99492.38;5045735;28;20553;-72
2023/10/28 06:13:49;;;;;;;4.00;0.10;;;;;;;14.07;100.00;99494.81;5047487;28;20029;-71
2023/10/28 06:16:15;;;;;;;0.32;0.10;;;;;;;14.05;100.00;99508.09;5048473;28;20482;-71
2023/10/28 06:18:40;;;;;;;0.80;0.10;;;;;;;14.07;100.00;99513.16;5048714;28;20033;-71
2023/10/28 06:21:06;;;;;;;0.40;0.08;;;;;;;14.08;100.00;99512.97;5048924;28;20122;-71
2023/10/28 06:23:32;;;;;;;1.60;0.80;;;;;;;14.09;100.00;99525.06;5051302;28;20036;-71
2023/10/28 06:25:57;;;;;;;0.93;0.10;;;;;;;14.12;100.00;99531.72;5048229;28;20040;-71
2023/10/28 06:28:23;;;;;;;4.25;0.20;;;;;;;14.13;100.00;99541.19;5052940;28;20032;-71
2023/10/28 06:30:49;;;;;;;2.15;0.20;;;;;;;14.17;100.00;99537.22;5048639;28;20051;-71
2023/10/28 06:33:15;;;;;;;2.13;0.20;;;;;;;14.19;100.00;99548.28;5053995;28;20044;-72
2023/10/28 06:35:40;;;;;;;6.28;0.43;;;;;;;14.16;100.00;99549.50;5052407;28;20047;-71
2023/10/28 06:38:09;;;;;;;0.70;0.10;;;;;;;14.17;100.00;99558.16;5052917;28;20037;-71
2023/10/28 06:40:37;;;;;;;1.10;0.28;;;;;;;14.17;100.00;99552.91;5052051;28;20072;-71
2023/10/28 06:43:04;;;;;;;0.30;0.10;;;;;;;14.10;100.00;99568.59;5052545;28;20043;-72
2023/10/28 06:45:29;;;;;;;0.35;0.13;;;;;;;14.11;100.00;99558.91;5052430;28;20481;-71
2023/10/28 06:47:55;;;;;;;1.77;0.10;;;;;;;14.09;100.00;99556.50;5051749;28;20037;-72
2023/10/28 06:50:20;;;;;;;0.30;0.10;;;;;;;14.12;100.00;99571.00;5048387;28;20053;-72
2023/10/28 06:52:48;;;;;;;1.95;0.20;;;;;;;14.15;100.00;99565.41;5054209;28;20040;-71
2023/10/28 06:55:14;;;;;;;5.53;0.30;;;;;;;14.17;100.00;99568.66;5051589;28;20032;-71
2023/10/28 06:57:41;;;;;;;3.78;0.63;;;;;;;14.23;100.00;99575.72;5051868;28;20508;-71
2023/10/28 07:00:17;;;;;;;2.53;0.20;;;;;;;14.25;100.00;99582.38;5052255;28;20021;-72
2023/10/28 07:02:43;;;;;;;2.22;0.20;;;;;;;14.27;100.00;99588.25;5052101;28;20115;-71
2023/10/28 07:05:10;;;;;;;0.22;0.10;;;;;;;14.31;100.00;99591.31;5051830;28;20762;-72
2023/10/28 07:07:36;;;;;;;1.42;0.17;;;;;;;14.39;100.00;99585.94;5051701;28;20032;-72
2023/10/28 07:10:02;;;;;;;0.63;0.13;;;;;;;14.40;100.00;99603.28;5051489;28;20032;-71
2023/10/28 07:12:28;;;;;;;1.38;0.20;;;;;;;14.37;100.00;99600.22;5051261;28;20110;-71
2023/10/28 07:14:54;;;;;;;1.48;0.10;;;;;;;14.40;100.00;99597.22;5050549;28;20040;-71
2023/10/28 07:17:22;;;;;;;1.85;0.52;;;;;;;14.42;100.00;99603.13;5051484;28;20401;-71
2023/10/28 07:19:50;;;;;;;0.50;0.10;;;;;;;14.42;100.00;99606.53;5051323;28;20040;-71
2023/10/28 07:22:22;;;;;;;1.05;0.20;;;;;;;14.41;100.00;99615.41;5051714;28;20807;-72
2023/10/28 07:24:48;;;;;;;0.68;0.10;;;;;;;14.41;100.00;99609.31;5050867;28;20041;-71
2023/10/28 07:27:14;;;;;;;0.60;0.03;;;;;;;14.43;100.00;99609.97;5051580;28;20071;-71
2023/10/28 07:29:40;;;;;;;1.42;0.57;;;;;;;14.48;100.00;99613.66;5050299;28;20039;-70
2023/10/28 07:32:06;;;;;;;0.90;0.10;;;;;;;14.53;100.00;99615.72;5041691;28;20025;-71
2023/10/28 07:34:31;;;;;;;0.35;0.10;;;;;;;14.55;100.00;99622.38;5040733;28;20044;-71
2023/10/28 07:37:00;;;;;;;4.53;0.10;;;;;;;14.60;100.00;99616.56;5037373;28;20040;-71
2023/10/28 07:39:26;;;;;;;1.15;0.15;;;;;;;14.61;100.00;99612.94;5043828;28;20029;-71
2023/10/28 07:41:56;;;;;;;1.17;0.10;;;;;;;14.60;100.00;99620.00;5041967;28;20022;-72
2023/10/28 07:44:22;;;;;;;0.70;0.10;;;;;;;14.67;100.00;99622.63;5039685;28;20033;-71
2023/10/28 07:46:47;;;;;;;0.47;0.10;;;;;;;14.69;100.00;99623.25;5036402;28;20494;-71
2023/10/28 07:49:13;;;;;;;2.20;0.20;;;;;;;14.68;100.00;99634.75;5039033;28;24288;-71
2023/10/28 07:51:39;;;;;;;0.50;0.10;;;;;;;14.69;100.00;99636.38;5041675;28;20039;-71
2023/10/28 07:54:06;;;;;;;2.85;0.10;;;;;;;14.65;100.00;99637.75;5046544;28;20038;-71
2023/10/28 07:56:32;;;;;;;1.13;0.20;;;;;;;14.66;100.00;99652.47;5039011;28;20029;-71
2023/10/28 07:58:59;;;;;;;2.38;0.20;;;;;;;14.68;100.00;99647.84;5035416;28;20025;-70
2023/10/28 08:01:27;;;;;;;3.33;0.20;;;;;;;14.71;100.00;99649.28;5037208;28;20368;-71
2023/10/28 08:03:52;;;;;;;0.52;0.10;;;;;;;14.72;100.00;99650.91;5036556;28;20033;-72
2023/10/28 08:06:19;;;;;;;0.70;0.10;;;;;;;14.73;100.00;99648.09;5037704;28;20052;-71
2023/10/28 08:08:46;;;;;;;1.63;0.10;;;;;;;14.78;100.00;99658.03;5038908;28;20128;-73
2023/10/28 08:11:13;;;;;;;1.35;0.10;;;;;;;14.83;100.00;99661.69;5041828;28;20095;-72
2023/10/28 08:13:39;;;;;;;0.57;0.10;;;;;;;14.89;100.00;99662.75;5039934;28;20021;-71
2023/10/28 08:16:09;;;;;;;1.58;0.10;;;;;;;14.99;100.00;99668.47;5044298;28;20033;-71
2023/10/28 08:18:38;;;;;;;0.40;0.10;;;;;;;15.16;100.00;99671.56;5043475;28;20025;-71
2023/10/28 08:21:04;;;;;;;0.82;0.10;;;;;;;15.32;100.00;99678.31;5041123;28;20080;-71
2023/10/28 08:23:29;;;;;;;4.57;0.25;;;;;;;15.51;100.00;99685.50;5041012;28;20561;-71
2023/10/28 08:25:58;;;;;;;4.80;0.22;;;;;;;15.58;100.00;99684.56;5038738;28;20044;-71
2023/10/28 08:28:23;;;;;;;2.28;0.10;;;;;;;15.69;100.00;99680.53;5044726;28;20086;-71
2023/10/28 08:30:48;;;;;;;2.17;0.10;;;;;;;15.78;100.00;99687.25;5038248;28;20021;-71
2023/10/28 08:33:14;;;;;;;0.68;0.10;;;;;;;15.83;100.00;99686.66;5044327;28;21915;-71
2023/10/28 08:35:39;;;;;;;4.10;0.10;;;;;;;15.92;100.00;99685.47;5040843;28;20044;-71
2023/10/28 08:38:05;;;;;;;1.40;0.10;;;;;;;16.07;100.00;99693.19;5049308;28;20485;-71
2023/10/28 08:40:34;;;;;;;3.42;0.10;;;;;;;16.12;100.00;99699.44;5049291;28;20396;-71
2023/10/28 08:43:00;;;;;;;0.80;0.20;;;;;;;16.12;100.00;99702.06;5049715;28;20123;-70
2023/10/28 08:45:26;;;;;;;3.67;0.35;;;;;;;16.12;100.00;99706.53;5047594;28;20113;-70
2023/10/28 08:47:53;;;;;;;0.55;0.10;;;;;;;16.19;100.00;99702.09;5048087;28;20028;-71
2023/10/28 08:50:22;;;;;;;1.40;0.10;;;;;;;16.35;100.00;99706.19;5049040;28;20083;-71
2023/10/28 08:52:51;;;;;;;3.13;0.10;;;;;;;16.44;100.00;99708.41;5048212;28;20469;-71
2023/10/28 08:55:16;;;;;;;2.50;0.10;;;;;;;16.58;100.00;99711.84;5049362;28;20063;-71
2023/10/28 08:57:46;;;;;;;4.63;0.10;;;;;;;16.62;100.00;99715.69;5047826;28;20494;-71
2023/10/28 09:00:17;;;;;;;2.97;0.22;;;;;;;16.68;100.00;99714.91;5048477;28;20543;-71
2023/10/28 09:02:49;;;;;;;1.80;0.32;;;;;;;16.78;100.00;99715.34;5047576;28;20060;-71
2023/10/28 09:05:15;;;;;;;2.45;0.17;;;;;;;16.81;100.00;99709.66;5047123;28;20517;-71
2023/10/28 09:07:41;;;;;;;2.17;0.10;;;;;;;16.92;100.00;99718.78;5045450;28;20060;-71
2023/10/28 09:10:07;;;;;;;1.48;0.00;;;;;;;16.91;100.00;99723.22;5047097;28;20056;-71
2023/10/28 09:12:32;;;;;;;0.55;0.00;;;;;;;17.01;100.00;99729.91;5045899;28;20029;-71
2023/10/28 09:14:58;;;;;;;0.57;0.00;;;;;;;17.11;100.00;99740.78;5046569;28;20033;-71
2023/10/28 09:17:23;;;;;;;1.08;0.15;;;;;;;17.05;100.00;99741.63;5046251;28;20115;-71
2023/10/28 09:19:51;;;;;;;2.28;0.20;;;;;;;16.90;100.00;99737.38;5044342;28;20042;-71
2023/10/28 09:22:17;;;;;;;2.47;0.10;;;;;;;16.83;100.00;99741.03;5046393;28;20037;-71
2023/10/28 09:24:46;;;;;;;0.93;0.17;;;;;;;16.83;100.00;99743.66;5042114;28;20048;-71
2023/10/28 09:27:13;;;;;;;2.67;0.10;;;;;;;16.81;100.00;99743.88;5044758;28;20087;-71
2023/10/28 09:29:41;;;;;;;2.03;0.10;;;;;;;16.91;100.00;99754.00;5042766;28;20524;-71
2023/10/28 09:32:08;;;;;;;2.00;0.10;;;;;;;17.01;100.00;99753.59;5044068;28;20033;-71
2023/10/28 09:34:40;;;;;;;1.42;0.13;;;;;;;17.07;100.00;99758.00;5042920;28;20132;-71
2023/10/28 09:37:07;;;;;;;3.67;0.10;;;;;;;17.11;100.00;99752.13;5045980;28;20040;-71
2023/10/28 09:39:33;;;;;;;2.92;0.10;;;;;;;17.14;100.00;99745.66;5043349;28;20033;-71
2023/10/28 09:42:00;;;;;;;2.95;0.32;;;;;;;17.15;100.00;99744.66;5044368;28;20116;-71
2023/10/28 09:44:26;;;;;;;4.47;0.10;;;;;;;17.14;100.00;99751.72;5043579;28;20084;-71
2023/10/28 09:47:07;;;;;;;0.20;0.00;;;;;;;17.16;100.00;99756.78;5040956;28;20053;-71
2023/10/28 09:49:37;;;;;;;0.63;0.10;;;;;;;17.20;100.00;99758.00;5039423;28;20102;-71
2023/10/28 09:52:07;;;;;;;0.60;0.00;;;;;;;17.28;100.00;99757.78;5042224;28;20049;-71
2023/10/28 09:54:35;;;;;;;3.17;0.08;;;;;;;17.31;100.00;99746.84;5042120;28;20037;-71
2023/10/28 09:57:02;;;;;;;0.55;0.00;;;;;;;17.39;100.00;99740.56;5042025;28;20033;-71
2023/10/28 09:59:33;;;;;;;4.35;0.98;;;;;;;17.38;100.00;99739.75;5048282;28;20481;-71
2023/10/28 10:02:24;;;;;;;1.88;0.20;;;;;;;17.46;100.00;99739.53;5047470;28;20053;-71
2023/10/28 10:04:58;;;;;;;0.63;0.10;;;;;;;17.54;100.00;99735.84;5045731;28;20030;-71
2023/10/28 10:07:24;;;;;;;0.85;0.17;;;;;;;17.57;100.00;99727.53;5044604;28;20059;-70
2023/10/28 10:09:51;;;;;;;0.95;0.10;;;;;;;17.54;100.00;99720.03;5042344;28;20462;-71
2023/10/28 10:12:17;;;;;;;3.88;0.10;;;;;;;17.64;100.00;99727.50;5045447;28;20071;-71
2023/10/28 10:14:47;;;;;;;2.08;0.57;;;;;;;17.75;100.00;99725.06;5043092;28;20432;-70
2023/10/28 10:17:22;;;;;;;2.00;0.28;;;;;;;17.90;99.01;99722.19;5043903;28;20033;-71
2023/10/28 10:19:48;;;;;;;;;;;;;;;17.91;90.77;99729.06;5040787;28;20033;-70
2023/10/28 10:22:15;;;;;;;;;;;;;;;17.85;88.29;99730.72;5043519;28;19928;-71
2023/10/28 10:24:50;;;;;;;1.88;0.10;;;;;;;17.82;100.00;99733.75;5043862;28;19916;-71
2023/10/28 10:27:31;;;;;;;1.30;0.10;;;;;;;17.89;100.00;99741.66;5048614;28;20028;-71
2023/10/28 10:30:06;;;;;;;3.08;0.10;;;;;;;17.89;100.00;99736.38;5047841;28;20037;-70
2023/10/28 10:32:40;;;;;;;1.95;0.17;;;;;;;17.82;100.00;99748.75;5049452;28;20039;-71
2023/10/28 10:35:13;;;;;;;1.85;0.08;;;;;;;17.78;100.00;99747.56;5046186;28;20025;-70
2023/10/28 10:37:38;;;;;;;0.63;0.10;;;;;;;17.87;100.00;99756.84;5045003;28;20029;-71
2023/10/28 10:40:08;;;;;;;0.60;0.10;;;;;;;17.94;100.00;99754.19;5048360;28;20055;-71
2023/10/28 10:42:36;;;;;;;1.27;0.15;;;;;;;18.01;100.00;99755.75;5046075;28;20041;-71
2023/10/28 10:45:03;;;;;;;0.93;0.10;;;;;;;18.14;100.00;99760.16;5046976;28;20533;-71
2023/10/28 10:47:29;;;;;;;0.95;0.00;;;;;;;18.27;100.00;99760.09;5055910;28;20374;-71
2023/10/28 10:49:56;;;;;;;0.77;0.20;;;;;;;18.36;98.98;99758.03;5046356;28;20073;-71
2023/10/28 10:52:22;;;;;;;5.22;0.15;;;;;;;18.43;100.00;99764.84;5046373;28;20032;-70
2023/10/28 10:54:48;;;;;;;3.65;0.20;;;;;;;18.36;99.95;99765.94;5042468;28;20030;-71
2023/10/28 10:57:13;;;;;;;3.92;0.32;;;;;;;18.28;100.00;99772.28;5045100;28;20028;-71
2023/10/28 10:59:39;;;;;;;2.47;0.28;;;;;;;18.27;100.00;99767.22;5043625;28;20033;-71
2023/10/28 11:02:04;;;;;;;2.72;0.10;;;;;;;18.26;100.00;99770.88;5044358;28;20048;-71
2023/10/28 11:04:31;;;;;;;2.15;0.00;;;;;;;18.18;100.00;99778.00;5046453;28;20028;-70
2023/10/28 11:06:57;;;;;;;1.88;0.20;;;;;;;18.05;100.00;99777.22;5043060;28;20843;-71
2023/10/28 11:09:23;;;;;;;1.38;0.10;;;;;;;17.98;100.00;99782.53;5045655;28;20045;-71
2023/10/28 11:11:49;;;;;;;0.98;0.10;;;;;;;17.93;100.00;99785.00;5045874;28;20025;-71
2023/10/28 11:14:16;;;;;;;4.93;0.10;;;;;;;17.86;100.00;99784.22;5041280;28;20420;-71
2023/10/28 11:16:42;;;;;;;3.13;0.10;;;;;;;17.85;100.00;99774.69;5041950;28;20028;-71
2023/10/28 11:19:09;;;;;;;3.05;0.10;;;;;;;17.90;100.00;99764.34;5042088;28;20028;-71
2023/10/28 11:21:36;;;;;;;2.25;0.20;;;;;;;18.03;100.00;99763.47;5038645;28;20478;-71
2023/10/28 11:24:03;;;;;;;1.10;0.20;;;;;;;18.07;100.00;99770.75;5045976;28;20094;-71